Time;durP1;ratioP1;P1;durP2;ratioP2;P2;SDS_P1;SDS_P2;PMS_P1;PMS_P2;Temp;Humidity;BMP_temperature;BMP_pressure;BME280_temperature;BME280_humidity;BME280_pressure;Samples;Min_cycle;Max_cycle;Signal;HPM_P1;HPM_P2
2023/05/08 00:01:55;;;;;;;;;;;12.50;99.90;;;;;;5115494;27;19932;-75
2023/05/08 00:04:20;;;;;;;;;;;12.50;99.90;;;;;;5112803;27;19975;-76
2023/05/08 00:06:46;;;;;;;;;;;12.50;99.90;;;;;;5112836;27;19934;-75
2023/05/08 00:09:12;;;;;;;;;;;12.50;99.90;;;;;;5107086;27;20328;-75
2023/05/08 00:11:37;;;;;;;;;;;12.50;99.90;;;;;;5096678;27;19937;-75
2023/05/08 00:14:03;;;;;;;;;;;12.40;99.90;;;;;;5110342;27;19927;-75
2023/05/08 00:16:28;;;;;;;;;;;12.30;99.90;;;;;;5111537;27;19923;-76
2023/05/08 00:18:54;;;;;;;;;;;12.30;99.90;;;;;;5111973;27;20752;-75
2023/05/08 00:21:20;;;;;;;;;;;12.30;99.90;;;;;;5111416;27;20731;-76
2023/05/08 00:23:45;;;;;;;;;;;12.30;99.90;;;;;;5111686;28;19988;-76
2023/05/08 00:26:11;;;;;;;;;;;12.30;99.90;;;;;;5109376;28;19931;-76
2023/05/08 00:28:36;;;;;;;;;;;12.30;99.90;;;;;;5109733;28;19928;-76
2023/05/08 00:31:02;;;;;;;;;;;12.30;99.90;;;;;;5109586;28;19931;-76
2023/05/08 00:33:28;;;;;;;;;;;12.30;99.90;;;;;;5103680;28;19984;-76
2023/05/08 00:36:00;;;;;;;;;;;12.30;99.90;;;;;;5112738;27;19928;-76
2023/05/08 00:38:25;;;;;;;;;;;12.30;99.90;;;;;;5115332;28;20273;-75
2023/05/08 00:40:51;;;;;;;;;;;12.20;99.90;;;;;;5110328;28;19945;-76
2023/05/08 00:43:17;;;;;;;;;;;12.20;99.90;;;;;;5112033;28;19931;-76
2023/05/08 00:45:42;;;;;;;;;;;12.20;99.90;;;;;;5112518;28;19939;-76
2023/05/08 00:48:08;;;;;;;;;;;12.20;99.90;;;;;;5113634;28;19988;-76
2023/05/08 00:50:34;;;;;;;;;;;12.30;99.90;;;;;;5115874;28;19927;-76
2023/05/08 00:53:01;;;;;;;;;;;12.20;99.90;;;;;;5108884;28;19930;-75
2023/05/08 00:55:28;;;;;;;;;;;12.20;99.90;;;;;;5132024;27;19935;-76
2023/05/08 00:57:53;;;;;;;;;;;12.10;99.90;;;;;;5112772;28;20387;-76
2023/05/08 01:00:19;;;;;;;;;;;12.20;99.90;;;;;;5112541;28;19927;-76
2023/05/08 01:02:45;;;;;;;;;;;12.10;99.90;;;;;;5105175;28;20014;-75
2023/05/08 01:05:11;;;;;;;;;;;12.10;99.90;;;;;;5114061;28;19935;-75
2023/05/08 01:07:37;;;;;;;;;;;12.10;99.90;;;;;;5110607;28;20022;-75
2023/05/08 01:10:04;;;;;;;;;;;12.10;99.90;;;;;;5103755;28;19927;-75
2023/05/08 01:12:36;;;;;;;;;;;12.10;99.90;;;;;;5098472;28;19927;-75
2023/05/08 01:15:05;;;;;;;;;;;12.10;99.90;;;;;;5104275;28;19934;-75
2023/05/08 01:17:39;;;;;;;;;;;12.10;99.90;;;;;;5098011;28;20450;-75
2023/05/08 01:20:18;;;;;;;;;;;12.00;99.90;;;;;;5105879;27;20009;-76
2023/05/08 01:23:02;;;;;;;;;;;11.90;99.90;;;;;;5112716;27;19927;-75
2023/05/08 01:25:40;;;;;;;;;;;11.90;99.90;;;;;;5118817;27;19928;-75
2023/05/08 01:28:09;;;;;;;;;;;11.80;99.90;;;;;;5116484;27;19927;-76
2023/05/08 01:30:49;;;;;;;;;;;11.80;99.90;;;;;;5116465;27;19935;-75
2023/05/08 01:33:27;;;;;;;;;;;11.80;99.90;;;;;;5115894;27;19928;-76
2023/05/08 01:35:57;;;;;;;;;;;11.70;99.90;;;;;;5115506;27;20360;-75
2023/05/08 01:38:31;;;;;;;;;;;11.70;99.90;;;;;;5118731;27;20265;-75
2023/05/08 01:41:02;;;;;;;;;;;11.60;99.90;;;;;;5115939;27;19924;-76
2023/05/08 01:43:30;;;;;;;;;;;11.60;99.90;;;;;;5111699;27;19939;-76
2023/05/08 01:45:58;;;;;;;;;;;11.60;99.90;;;;;;5114253;27;19927;-75
2023/05/08 01:48:32;;;;;;;;;;;11.60;99.90;;;;;;5116034;27;19991;-75
2023/05/08 01:51:06;;;;;;;;;;;11.60;99.90;;;;;;5114487;27;19931;-76
2023/05/08 01:53:35;;;;;;;;;;;11.50;99.90;;;;;;5114709;27;19935;-75
2023/05/08 01:56:03;;;;;;;;;;;11.50;99.90;;;;;;5115570;27;19928;-75
2023/05/08 01:58:30;;;;;;;;;;;11.50;99.90;;;;;;5115373;27;20377;-75
2023/05/08 02:00:56;;;;;;;;;;;11.40;99.90;;;;;;5099940;27;19927;-75
2023/05/08 02:03:23;;;;;;;;;;;11.40;99.90;;;;;;5116838;27;19927;-75
2023/05/08 02:05:50;;;;;;;;;;;11.30;99.90;;;;;;5119571;27;20623;-75
2023/05/08 02:08:17;;;;;;;;;;;11.30;99.90;;;;;;5115736;27;20018;-75
2023/05/08 02:10:43;;;;;;;;;;;11.30;99.90;;;;;;5116953;27;20426;-75
2023/05/08 02:13:10;;;;;;;;;;;11.20;99.90;;;;;;5115469;27;19934;-75
2023/05/08 02:15:36;;;;;;;;;;;11.20;99.90;;;;;;5114229;27;19988;-76
2023/05/08 02:18:04;;;;;;;;;;;11.10;99.90;;;;;;5098879;27;19928;-75
2023/05/08 02:20:30;;;;;;;;;;;11.10;99.90;;;;;;5117677;27;19927;-75
2023/05/08 02:22:56;;;;;;;;;;;11.10;99.90;;;;;;5115745;27;19942;-75
2023/05/08 02:25:22;;;;;;;;;;;11.00;99.90;;;;;;5116747;27;19935;-75
2023/05/08 02:27:49;;;;;;;;;;;11.10;99.90;;;;;;5115896;27;19934;-75
2023/05/08 02:30:15;;;;;;;;;;;11.00;99.90;;;;;;5114179;27;19977;-75
2023/05/08 02:32:42;;;;;;;;;;;10.90;99.90;;;;;;5111895;27;20426;-75
2023/05/08 02:35:15;;;;;;;;;;;10.90;99.90;;;;;;5114908;27;20027;-75
2023/05/08 02:38:00;;;;;;;;;;;10.90;99.90;;;;;;5118310;27;19949;-75
2023/05/08 02:40:27;;;;;;;;;;;10.80;99.90;;;;;;5118613;27;20605;-75
2023/05/08 02:42:53;;;;;;;;;;;10.80;99.90;;;;;;5110004;27;19976;-75
2023/05/08 02:45:18;;;;;;;;;;;10.80;99.90;;;;;;5120061;27;19923;-74
2023/05/08 02:47:50;;;;;;;;;;;10.80;99.90;;;;;;5112703;27;19972;-75
2023/05/08 02:50:20;;;;;;;;;;;10.80;99.90;;;;;;5115407;27;20567;-74
2023/05/08 02:53:01;;;;;;;;;;;10.70;99.90;;;;;;5112230;27;20028;-75
2023/05/08 02:55:47;;;;;;;;;;;10.70;99.90;;;;;;5117810;27;20680;-74
2023/05/08 02:58:19;;;;;;;;;;;10.70;99.90;;;;;;5112088;27;19935;-75
2023/05/08 03:00:51;;;;;;;;;;;10.70;99.90;;;;;;5115337;27;19927;-74
2023/05/08 03:03:23;;;;;;;;;;;10.60;99.90;;;;;;5116230;27;19976;-74
2023/05/08 03:05:51;;;;;;;;;;;10.60;99.90;;;;;;5111239;27;20404;-74
2023/05/08 03:08:19;;;;;;;;;;;10.70;99.90;;;;;;5119257;27;19927;-74
2023/05/08 03:10:46;;;;;;;;;;;10.70;99.90;;;;;;5114128;27;19924;-74
2023/05/08 03:13:13;;;;;;;;;;;10.60;99.90;;;;;;5115337;27;19979;-75
2023/05/08 03:15:44;;;;;;;;;;;10.50;99.90;;;;;;5113673;27;19977;-75
2023/05/08 03:18:15;;;;;;;;;;;10.60;99.90;;;;;;5114132;27;20375;-74
2023/05/08 03:20:45;;;;;;;;;;;10.50;99.90;;;;;;5099673;27;19927;-75
2023/05/08 03:23:12;;;;;;;;;;;10.50;99.90;;;;;;5117003;27;19937;-74
2023/05/08 03:25:40;;;;;;;;;;;10.50;99.90;;;;;;5117615;27;20379;-74
2023/05/08 03:28:06;;;;;;;;;;;10.40;99.90;;;;;;5114119;27;19935;-74
2023/05/08 03:30:34;;;;;;;;;;;10.40;99.90;;;;;;5115866;27;20614;-75
2023/05/08 03:33:00;;;;;;;;;;;10.40;99.90;;;;;;5118447;27;19950;-74
2023/05/08 03:35:27;;;;;;;;;;;10.50;99.90;;;;;;5113897;27;19931;-76
2023/05/08 03:37:52;;;;;;;;;;;10.40;99.90;;;;;;5117541;27;19937;-75
2023/05/08 03:40:19;;;;;;;;;;;10.30;99.90;;;;;;5112107;27;19927;-75
2023/05/08 03:42:45;;;;;;;;;;;10.30;99.90;;;;;;5111669;27;19928;-74
2023/05/08 03:45:12;;;;;;;;;;;10.40;99.90;;;;;;5110392;27;19975;-74
2023/05/08 03:47:39;;;;;;;;;;;10.40;99.90;;;;;;5113676;27;19927;-75
2023/05/08 03:50:05;;;;;;;;;;;10.40;99.90;;;;;;5116569;27;20001;-75
2023/05/08 03:52:31;;;;;;;;;;;10.50;99.90;;;;;;5115532;27;19923;-75
2023/05/08 03:54:56;;;;;;;;;;;10.40;99.90;;;;;;5115685;27;20006;-75
2023/05/08 03:57:24;;;;;;;;;;;10.50;99.90;;;;;;5113997;27;19934;-74
2023/05/08 03:59:58;;;;;;;;;;;10.50;99.90;;;;;;5113104;27;20434;-74
2023/05/08 04:02:26;;;;;;;;;;;10.50;99.90;;;;;;5105150;27;19923;-75
2023/05/08 04:04:58;;;;;;;;;;;10.60;99.90;;;;;;5116991;27;20161;-75
2023/05/08 04:07:27;;;;;;;;;;;10.60;99.90;;;;;;5115254;27;20875;-74
2023/05/08 04:09:56;;;;;;;;;;;10.60;99.90;;;;;;5114902;27;19972;-75
2023/05/08 04:12:32;;;;;;;;;;;10.60;99.90;;;;;;5111547;27;19924;-75
2023/05/08 04:15:04;;;;;;;;;;;10.60;99.90;;;;;;5115114;27;19927;-75
2023/05/08 04:17:35;;;;;;;;;;;10.60;99.90;;;;;;5116346;27;19931;-75
2023/05/08 04:20:03;;;;;;;;;;;10.70;99.90;;;;;;5112794;28;20602;-75
2023/05/08 04:22:30;;;;;;;;;;;10.60;99.90;;;;;;5083412;27;19931;-75
2023/05/08 04:24:58;;;;;;;;;;;10.70;99.90;;;;;;5110684;27;20059;-75
2023/05/08 04:27:24;;;;;;;;;;;10.70;99.90;;;;;;5116318;28;19924;-75
2023/05/08 04:29:49;;;;;;;;;;;10.70;99.90;;;;;;5112322;28;19931;-74
2023/05/08 04:32:15;;;;;;;;;;;10.70;99.90;;;;;;5113221;28;20004;-75
2023/05/08 04:34:41;;;;;;;;;;;10.70;99.90;;;;;;5112654;28;20042;-75
2023/05/08 04:37:07;;;;;;;;;;;10.80;99.90;;;;;;5112773;28;20539;-75
2023/05/08 04:39:32;;;;;;;;;;;10.90;99.90;;;;;;5112336;28;19932;-75
2023/05/08 04:42:02;;;;;;;;;;;10.90;99.90;;;;;;5114664;28;19927;-75
2023/05/08 04:44:28;;;;;;;;;;;10.90;99.90;;;;;;5115408;28;19931;-75
2023/05/08 04:46:54;;;;;;;;;;;10.90;99.90;;;;;;5113152;27;19923;-75
2023/05/08 04:49:19;;;;;;;;;;;11.00;99.90;;;;;;5114954;28;19992;-75
2023/05/08 04:51:45;;;;;;;;;;;11.00;99.90;;;;;;5109690;28;19931;-74
2023/05/08 04:54:10;;;;;;;;;;;11.00;99.90;;;;;;5112929;28;19939;-74
2023/05/08 04:56:36;;;;;;;;;;;11.00;99.90;;;;;;5118717;27;20330;-75
2023/05/08 04:59:01;;;;;;;;;;;11.00;99.90;;;;;;5114209;27;19932;-75
2023/05/08 05:01:27;;;;;;;;;;;11.00;99.90;;;;;;5117172;27;19927;-75
2023/05/08 05:03:53;;;;;;;;;;;11.00;99.90;;;;;;5113246;27;20019;-75
2023/05/08 05:06:18;;;;;;;;;;;11.00;99.90;;;;;;5115755;27;19932;-75
2023/05/08 05:08:44;;;;;;;;;;;11.00;99.90;;;;;;5114813;27;19935;-75
2023/05/08 05:11:09;;;;;;;;;;;11.00;99.90;;;;;;5114227;27;19924;-76
2023/05/08 05:13:35;;;;;;;;;;;11.00;99.90;;;;;;5119245;27;20602;-75
2023/05/08 05:16:00;;;;;;;;;;;11.00;99.90;;;;;;5118364;27;19938;-76
2023/05/08 05:18:26;;;;;;;;;;;11.10;99.90;;;;;;5117669;27;19928;-76
2023/05/08 05:20:51;;;;;;;;;;;11.10;99.90;;;;;;5101010;27;20326;-75
2023/05/08 05:23:17;;;;;;;;;;;11.30;99.90;;;;;;5113020;27;19931;-76
2023/05/08 05:25:43;;;;;;;;;;;13.40;99.90;;;;;;5086884;27;19935;-75
2023/05/08 05:28:08;;;;;;;;;;;14.10;99.90;;;;;;5109522;27;19976;-75
2023/05/08 05:30:34;;;;;;;;;;;16.00;99.90;;;;;;5104966;27;20018;-76
2023/05/08 05:32:59;;;;;;;;;;;15.50;99.90;;;;;;5097406;27;20667;-75
2023/05/08 05:35:25;;;;;;;;;;;15.70;99.90;;;;;;5100302;27;19934;-76
2023/05/08 05:37:50;;;;;;;;;;;15.00;99.90;;;;;;5103256;27;19927;-77
2023/05/08 05:40:16;;;;;;;;;;;15.70;99.90;;;;;;5096623;27;19927;-76
2023/05/08 05:42:46;;;;;;;;;;;15.60;99.90;;;;;;5096244;27;20277;-75
2023/05/08 05:45:12;;;;;;;;;;;16.40;99.90;;;;;;5094585;27;19934;-76
2023/05/08 05:47:37;;;;;;;;;;;14.10;99.90;;;;;;5093849;27;20401;-75
2023/05/08 05:50:03;;;;;;;;;;;13.90;99.90;;;;;;5094100;27;19927;-76
2023/05/08 05:52:29;;;;;;;;;;;13.10;99.90;;;;;;5092101;27;19934;-76
2023/05/08 05:54:54;;;;;;;;;;;13.60;99.90;;;;;;5092705;27;20376;-76
2023/05/08 05:57:20;;;;;;;;;;;12.90;99.90;;;;;;5103756;27;19939;-76
2023/05/08 05:59:46;;;;;;;;;;;13.30;99.90;;;;;;5094347;27;19927;-76
2023/05/08 06:02:17;;;;;;;;;;;13.40;99.90;;;;;;5101658;27;19973;-76
2023/05/08 06:04:42;;;;;;;;;;;13.20;99.90;;;;;;5089791;27;19927;-76
2023/05/08 06:07:08;;;;;;;;;;;13.10;99.90;;;;;;5090713;27;19927;-76
2023/05/08 06:09:35;;;;;;;;;;;13.50;99.90;;;;;;5090719;27;20296;-76
2023/05/08 06:12:01;;;;;;;;;;;13.90;99.90;;;;;;5091387;27;20000;-76
2023/05/08 06:14:26;;;;;;;;;;;14.30;99.90;;;;;;5095256;27;19927;-73
2023/05/08 06:16:52;;;;;;;;;;;13.80;99.90;;;;;;5090358;27;19928;-76
2023/05/08 06:19:18;;;;;;;;;;;13.50;99.90;;;;;;5117126;27;19932;-75
2023/05/08 06:21:43;;;;;;;;;;;14.70;99.90;;;;;;5110828;27;19934;-75
2023/05/08 06:24:09;;;;;;;;;;;14.90;99.90;;;;;;5096358;27;20002;-75
2023/05/08 06:26:34;;;;;;;;;;;14.60;99.90;;;;;;5117832;27;19939;-77
2023/05/08 06:29:00;;;;;;;;;;;14.30;99.90;;;;;;5117260;27;20349;-74
2023/05/08 06:31:26;;;;;;;;;;;14.00;99.90;;;;;;5120146;27;20014;-76
2023/05/08 06:33:51;;;;;;;;;;;15.20;99.90;;;;;;5115644;27;19927;-76
2023/05/08 06:36:17;;;;;;;;;;;16.00;99.90;;;;;;5118357;27;20356;-76
2023/05/08 06:38:42;;;;;;;;;;;15.10;99.90;;;;;;5114521;27;19931;-76
2023/05/08 06:41:08;;;;;;;;;;;14.60;99.90;;;;;;5113891;27;19928;-76
2023/05/08 06:43:33;;;;;;;;;;;15.90;99.90;;;;;;5116467;27;19950;-76
2023/05/08 06:45:59;;;;;;;;;;;15.80;99.90;;;;;;5117152;27;19935;-77
2023/05/08 06:48:27;;;;;;;;;;;15.70;99.90;;;;;;5117092;27;20352;-76
2023/05/08 06:50:53;;;;;;;;;;;14.80;99.90;;;;;;5120682;27;19939;-77
2023/05/08 06:53:19;;;;;;;;;;;15.60;99.90;;;;;;5116350;27;19927;-76
2023/05/08 06:55:44;;;;;;;;;;;16.50;99.90;;;;;;5119631;27;19931;-77
2023/05/08 06:58:10;;;;;;;;;;;16.90;99.90;;;;;;5119880;27;19973;-78
2023/05/08 07:00:35;;;;;;;;;;;17.30;99.90;;;;;;5120019;27;19950;-77
2023/05/08 07:03:01;;;;;;;;;;;16.00;99.90;;;;;;5117302;27;19927;-76
2023/05/08 07:05:26;;;;;;;;;;;15.20;99.90;;;;;;5120491;27;19936;-73
2023/05/08 07:07:53;;;;;;;;;;;15.30;99.90;;;;;;5118372;27;19938;-76
2023/05/08 07:10:21;;;;;;;;;;;15.90;99.90;;;;;;5118709;27;19930;-77
2023/05/08 07:12:47;;;;;;;;;;;16.20;99.90;;;;;;5113505;27;19927;-76
2023/05/08 07:15:13;;;;;;;;;;;16.50;99.90;;;;;;5121254;27;20042;-75
2023/05/08 07:17:38;;;;;;;;;;;16.70;99.90;;;;;;5117841;27;20391;-76
2023/05/08 07:20:04;;;;;;;;;;;17.60;99.90;;;;;;5117364;27;19927;-77
2023/05/08 07:22:30;;;;;;;;;;;17.80;99.90;;;;;;5113822;27;19927;-74
2023/05/08 07:24:55;;;;;;;;;;;15.70;99.90;;;;;;5120885;27;20013;-74
2023/05/08 07:27:21;;;;;;;;;;;17.20;99.90;;;;;;5116360;27;19953;-78
2023/05/08 07:29:46;;;;;;;;;;;16.90;99.90;;;;;;5118074;27;20416;-76
2023/05/08 07:32:12;;;;;;;;;;;16.90;99.90;;;;;;5118285;27;19935;-77
2023/05/08 07:34:38;;;;;;;;;;;17.00;99.90;;;;;;5119910;27;19924;-78
2023/05/08 07:37:03;;;;;;;;;;;17.20;99.90;;;;;;5118699;27;19931;-77
2023/05/08 07:39:29;;;;;;;;;;;18.10;99.90;;;;;;5116714;27;19932;-77
2023/05/08 07:41:54;;;;;;;;;;;18.50;99.90;;;;;;5117978;27;20297;-76
2023/05/08 07:44:20;;;;;;;;;;;17.80;99.90;;;;;;5116986;27;20376;-76
2023/05/08 07:46:45;;;;;;;;;;;18.00;99.90;;;;;;5106090;27;19974;-76
2023/05/08 07:49:11;;;;;;;;;;;17.40;99.90;;;;;;5112430;27;19924;-76
2023/05/08 07:51:37;;;;;;;;;;;18.10;99.90;;;;;;5119591;27;20261;-77
2023/05/08 07:54:21;;;;;;;;;;;18.60;99.90;;;;;;5117549;27;20651;-78
2023/05/08 07:56:46;;;;;;;;;;;18.80;99.90;;;;;;5109754;27;20545;-77
2023/05/08 07:59:12;;;;;;;;;;;19.10;99.90;;;;;;5117770;27;20050;-78
2023/05/08 08:01:38;;;;;;;;;;;18.30;99.90;;;;;;5111330;27;19935;-77
2023/05/08 08:04:04;;;;;;;;;;;18.90;99.90;;;;;;5103697;27;19931;-77
2023/05/08 08:06:30;;;;;;;;;;;19.20;99.90;;;;;;5108424;27;19945;-77
2023/05/08 08:08:56;;;;;;;;;;;19.20;99.90;;;;;;5106357;27;20307;-79
2023/05/08 08:11:22;;;;;;;;;;;17.90;99.90;;;;;;5108535;27;19927;-78
2023/05/08 08:13:47;;;;;;;;;;;17.50;99.90;;;;;;5117944;27;20561;-78
2023/05/08 08:16:13;;;;;;;;;;;18.10;99.90;;;;;;5117156;27;20108;-76
2023/05/08 08:18:38;;;;;;;;;;;18.80;99.90;;;;;;5117202;27;20011;-77
2023/05/08 08:21:05;;;;;;;;;;;18.70;99.90;;;;;;5119089;27;19934;-76
2023/05/08 08:23:30;;;;;;;;;;;18.70;99.90;;;;;;5110837;27;19980;-77
2023/05/08 08:25:56;;;;;;;;;;;18.90;99.90;;;;;;5115507;27;19927;-77
2023/05/08 08:28:21;;;;;;;;;;;18.80;99.90;;;;;;5117705;28;19942;-76
2023/05/08 08:30:47;;;;;;;;;;;19.90;99.90;;;;;;5117379;27;20444;-76
2023/05/08 08:33:13;;;;;;;;;;;18.90;99.90;;;;;;5115470;28;20037;-77
2023/05/08 08:35:38;;;;;;;;;;;19.50;99.90;;;;;;5116580;28;19927;-77
2023/05/08 08:38:04;;;;;;;;;;;18.80;99.90;;;;;;5115619;28;20065;-77
2023/05/08 08:40:29;;;;;;;;;;;18.80;99.90;;;;;;5118199;28;20069;-78
2023/05/08 08:42:55;;;;;;;;;;;18.50;99.90;;;;;;5117423;27;19980;-77
2023/05/08 08:45:20;;;;;;;;;;;19.20;99.90;;;;;;5118665;28;19931;-77
2023/05/08 08:47:47;;;;;;;;;;;17.90;99.90;;;;;;5099758;28;20325;-76
2023/05/08 08:50:13;;;;;;;;;;;18.70;99.90;;;;;;5113873;28;19931;-77
2023/05/08 08:52:42;;;;;;;;;;;19.00;99.90;;;;;;5112460;28;20395;-77
2023/05/08 08:55:10;;;;;;;;;;;19.70;99.90;;;;;;5111159;28;19944;-76
2023/05/08 08:57:38;;;;;;;;;;;20.50;99.90;;;;;;5110467;28;19932;-76
2023/05/08 09:00:06;;;;;;;;;;;20.50;99.90;;;;;;5110985;28;19934;-74
2023/05/08 09:02:33;;;;;;;;;;;20.50;99.90;;;;;;5110727;28;19947;-77
2023/05/08 09:04:59;;;;;;;;;;;20.90;99.90;;;;;;5111549;28;19928;-77
2023/05/08 09:07:25;;;;;;;;;;;20.10;99.90;;;;;;5109985;28;20688;-77
2023/05/08 09:09:51;;;;;;;;;;;20.10;99.90;;;;;;5113519;28;19942;-77
2023/05/08 09:12:17;;;;;;;;;;;21.00;99.90;;;;;;5100405;28;20309;-77
2023/05/08 09:14:42;;;;;;;;;;;20.30;99.90;;;;;;5100874;28;20566;-78
2023/05/08 09:17:08;;;;;;;;;;;19.80;99.90;;;;;;5109668;28;19927;-78
2023/05/08 09:19:34;;;;;;;;;;;19.40;99.90;;;;;;5112653;28;20388;-76
2023/05/08 09:22:00;;;;;;;;;;;20.50;99.90;;;;;;5108951;28;19927;-77
2023/05/08 09:24:45;;;;;;;;;;;20.90;99.90;;;;;;5111875;28;19982;-77
2023/05/08 09:27:21;;;;;;;;;;;21.00;99.90;;;;;;5113979;28;19934;-76
2023/05/08 09:30:07;;;;;;;;;;;20.30;99.90;;;;;;5114831;28;19997;-77
2023/05/08 09:32:34;;;;;;;;;;;20.00;99.90;;;;;;5117913;28;19938;-76
2023/05/08 09:34:59;;;;;;;;;;;19.40;99.90;;;;;;5096444;28;20372;-77
2023/05/08 09:37:25;;;;;;;;;;;19.90;99.90;;;;;;5113327;28;20010;-77
2023/05/08 09:39:51;;;;;;;;;;;19.50;99.90;;;;;;5116672;28;19936;-77
2023/05/08 09:42:17;;;;;;;;;;;20.20;99.90;;;;;;5116565;27;20286;-76
2023/05/08 09:44:47;;;;;;;;;;;19.90;99.90;;;;;;5118531;27;19946;-77
2023/05/08 09:47:13;;;;;;;;;;;19.90;99.90;;;;;;5119364;27;20000;-76
2023/05/08 09:49:39;;;;;;;;;;;19.70;99.90;;;;;;5119014;27;19927;-76
2023/05/08 09:52:05;;;;;;;;;;;19.90;99.90;;;;;;5119286;27;20284;-76
2023/05/08 09:54:31;;;;;;;;;;;21.10;99.90;;;;;;5119733;27;20571;-78
2023/05/08 09:56:57;;;;;;;;;;;21.90;99.90;;;;;;5122642;27;19935;-77
2023/05/08 09:59:26;;;;;;;;;;;21.80;99.90;;;;;;5124324;27;19934;-76
2023/05/08 10:01:52;;;;;;;;;;;22.30;99.90;;;;;;5119402;27;19948;-76
2023/05/08 10:04:30;;;;;;;;;;;22.40;99.90;;;;;;5121571;27;19931;-78
2023/05/08 10:06:58;;;;;;;;;;;21.70;99.90;;;;;;5119861;27;19927;-77
2023/05/08 10:09:24;;;;;;;;;;;21.90;99.90;;;;;;5123868;27;19923;-80
2023/05/08 10:11:54;;;;;;;;;;;22.20;99.90;;;;;;5104415;27;19923;-77
2023/05/08 10:14:23;;;;;;;;;;;22.50;99.90;;;;;;5121146;27;20385;-81
2023/05/08 10:16:51;;;;;;;;;;;22.80;99.90;;;;;;5117397;27;19928;-78
2023/05/08 10:19:18;;;;;;;;;;;22.70;99.90;;;;;;5121101;27;20014;-77
2023/05/08 10:21:45;;;;;;;;;;;22.90;99.90;;;;;;5122273;27;20534;-77
2023/05/08 10:24:15;;;;;;;;;;;21.20;99.90;;;;;;5118605;27;19927;-78
2023/05/08 10:26:42;;;;;;;;;;;21.70;99.90;;;;;;5116925;27;19924;-77
2023/05/08 10:29:10;;;;;;;;;;;20.90;99.90;;;;;;5115894;27;19980;-77
2023/05/08 10:31:39;;;;;;;;;;;20.90;99.90;;;;;;5119040;27;19948;-77
2023/05/08 10:34:05;;;;;;;;;;;21.80;99.90;;;;;;5120004;27;19930;-78
2023/05/08 10:36:31;;;;;;;;;;;22.70;99.90;;;;;;5120112;27;19928;-77
2023/05/08 10:38:57;;;;;;;;;;;22.80;99.90;;;;;;5120509;27;19938;-77
2023/05/08 10:41:23;;;;;;;;;;;23.40;99.90;;;;;;5119211;27;19927;-77
2023/05/08 10:43:49;;;;;;;;;;;23.30;99.90;;;;;;5118233;27;20451;-78
2023/05/08 10:46:39;;;;;;;;;;;23.50;99.90;;;;;;5120264;27;20326;-77
2023/05/08 10:49:08;;;;;;;;;;;23.50;99.90;;;;;;5119191;27;19927;-77
2023/05/08 10:51:45;;;;;;;;;;;23.70;99.90;;;;;;5115695;27;20395;-78
2023/05/08 10:54:14;;;;;;;;;;;23.90;99.90;;;;;;5120297;27;20000;-77
2023/05/08 10:56:40;;;;;;;;;;;23.70;99.90;;;;;;5117139;27;19928;-77
2023/05/08 10:59:05;;;;;;;;;;;24.00;99.90;;;;;;5119334;27;19933;-78
2023/05/08 11:01:31;;;;;;;;;;;24.20;99.90;;;;;;5120181;27;19958;-77
2023/05/08 11:03:56;;;;;;;;;;;24.40;99.90;;;;;;5120444;27;19935;-77
2023/05/08 11:06:40;;;;;;;;;;;24.30;99.90;;;;;;5118641;27;20334;-80
2023/05/08 11:09:07;;;;;;;;;;;23.80;99.90;;;;;;5119456;27;19967;-83
2023/05/08 11:11:36;;;;;;;;;;;24.70;99.90;;;;;;5101441;27;19938;-79
2023/05/08 11:14:05;;;;;;;;;;;24.60;99.90;;;;;;5117155;27;20406;-78
2023/05/08 11:16:49;;;;;;;;;;;25.10;99.90;;;;;;5119862;27;19923;-78
2023/05/08 11:19:16;;;;;;;;;;;25.10;99.90;;;;;;5119944;27;19942;-78
2023/05/08 11:22:00;;;;;;;;;;;25.40;99.90;;;;;;5119005;27;19923;-78
2023/05/08 11:24:37;;;;;;;;;;;25.60;99.90;;;;;;5121518;27;19977;-77
2023/05/08 11:27:03;;;;;;;;;;;24.80;99.90;;;;;;5113007;27;19931;-78
2023/05/08 11:29:29;;;;;;;;;;;25.00;99.90;;;;;;5117064;27;19950;-78
2023/05/08 11:31:54;;;;;;;;;;;25.40;99.90;;;;;;5117495;27;19931;-77
2023/05/08 11:34:39;;;;;;;;;;;25.50;99.90;;;;;;5119330;27;20034;-78
2023/05/08 11:37:07;;;;;;;;;;;25.50;99.90;;;;;;5118860;27;20376;-78
2023/05/08 11:39:33;;;;;;;;;;;25.00;99.90;;;;;;5123212;27;19996;-78
2023/05/08 11:42:19;;;;;;;;;;;25.10;99.90;;;;;;5117349;27;20442;-78
2023/05/08 11:44:44;;;;;;;;;;;25.50;99.90;;;;;;5120509;27;19923;-77
2023/05/08 11:47:16;;;;;;;;;;;24.90;99.90;;;;;;5116416;27;20376;-78
2023/05/08 11:49:41;;;;;;;;;;;25.30;99.90;;;;;;5101048;27;19924;-79
2023/05/08 11:52:07;;;;;;;;;;;25.30;99.90;;;;;;5120944;27;19972;-79
2023/05/08 11:54:32;;;;;;;;;;;24.90;99.90;;;;;;5117830;27;20288;-78
2023/05/08 11:56:58;;;;;;;;;;;24.60;99.90;;;;;;5116739;27;20003;-78
2023/05/08 11:59:24;;;;;;;;;;;24.70;99.90;;;;;;5115809;27;19927;-77
2023/05/08 12:01:50;;;;;;;;;;;24.60;99.90;;;;;;5117102;27;20006;-78
2023/05/08 12:04:15;;;;;;;;;;;23.90;99.90;;;;;;5119414;27;19927;-77
2023/05/08 12:06:41;;;;;;;;;;;24.30;99.90;;;;;;5117531;27;20034;-78
2023/05/08 12:09:11;;;;;;;;;;;24.60;99.90;;;;;;5116450;27;21907;-78
2023/05/08 12:11:38;;;;;;;;;;;24.80;99.90;;;;;;5119709;27;19923;-78
2023/05/08 12:14:03;;;;;;;;;;;25.20;99.90;;;;;;5107043;27;19924;-78
2023/05/08 12:16:29;;;;;;;;;;;24.90;99.90;;;;;;5110209;27;20589;-77
2023/05/08 12:18:55;;;;;;;;;;;23.90;99.90;;;;;;5109214;27;19928;-78
2023/05/08 12:21:21;;;;;;;;;;;23.60;99.90;;;;;;5115243;27;19978;-78
2023/05/08 12:23:47;;;;;;;;;;;24.10;99.90;;;;;;5101579;27;20040;-79
2023/05/08 12:26:12;;;;;;;;;;;24.50;99.90;;;;;;5114272;27;19934;-78
2023/05/08 12:28:39;;;;;;;;;;;23.50;99.90;;;;;;5111999;28;19931;-78
2023/05/08 12:31:05;;;;;;;;;;;23.70;99.90;;;;;;5119335;28;20030;-77
2023/05/08 12:33:32;;;;;;;;;;;23.70;99.90;;;;;;5110763;28;20018;-78
2023/05/08 12:35:59;;;;;;;;;;;23.30;99.90;;;;;;5116713;28;19932;-77
2023/05/08 12:38:25;;;;;;;;;;;23.50;99.90;;;;;;5117452;28;19931;-77
2023/05/08 12:40:51;;;;;;;;;;;23.70;99.90;;;;;;5117749;28;19953;-78
2023/05/08 12:43:17;;;;;;;;;;;23.60;99.90;;;;;;5110314;28;20514;-77
2023/05/08 12:45:43;;;;;;;;;;;23.60;99.90;;;;;;5117811;28;20034;-77
2023/05/08 12:48:10;;;;;;;;;;;23.60;99.90;;;;;;5113612;28;19932;-77
2023/05/08 12:50:37;;;;;;;;;;;23.20;99.90;;;;;;5099796;28;20345;-78
2023/05/08 12:53:06;;;;;;;;;;;23.40;99.90;;;;;;5116910;27;20489;-78
2023/05/08 12:55:32;;;;;;;;;;;23.50;99.90;;;;;;5116841;27;20488;-77
2023/05/08 12:58:03;;;;;;;;;;;23.60;99.90;;;;;;5108115;28;20014;-77
2023/05/08 13:00:36;;;;;;;;;;;23.10;99.90;;;;;;5115786;27;19980;-77
2023/05/08 13:03:01;;;;;;;;;;;22.50;99.90;;;;;;5113942;28;19967;-77
2023/05/08 13:05:27;;;;;;;;;;;22.40;99.90;;;;;;5116714;28;19994;-77
2023/05/08 13:07:58;;;;;;;;;;;21.90;99.90;;;;;;5099865;28;19931;-77
2023/05/08 13:10:23;;;;;;;;;;;22.30;99.90;;;;;;5115493;28;19935;-77
2023/05/08 13:12:49;;;;;;;;;;;22.30;99.90;;;;;;5116685;28;19927;-77
2023/05/08 13:15:14;;;;;;;;;;;22.40;99.90;;;;;;5117112;28;19976;-77
2023/05/08 13:17:40;;;;;;;;;;;22.70;99.90;;;;;;5116794;27;19928;-77
2023/05/08 13:20:06;;;;;;;;;;;22.70;99.90;;;;;;5105321;27;19923;-77
2023/05/08 13:22:31;;;;;;;;;;;23.00;99.90;;;;;;5117297;27;20379;-77
2023/05/08 13:24:57;;;;;;;;;;;23.30;99.90;;;;;;5122139;27;19923;-77
2023/05/08 13:27:23;;;;;;;;;;;23.00;99.90;;;;;;5121389;27;20025;-78
2023/05/08 13:29:48;;;;;;;;;;;22.60;99.90;;;;;;5118925;27;19931;-77
2023/05/08 13:32:14;;;;;;;;;;;23.00;99.90;;;;;;5102672;27;20369;-77
2023/05/08 13:34:39;;;;;;;;;;;22.90;99.90;;;;;;5115595;27;19967;-79
2023/05/08 13:37:05;;;;;;;;;;;23.00;99.90;;;;;;5116294;27;19928;-78
2023/05/08 13:39:35;;;;;;;;;;;23.10;99.90;;;;;;5121228;27;20735;-77
2023/05/08 13:42:01;;;;;;;;;;;22.90;99.90;;;;;;5118784;27;20006;-78
2023/05/08 13:44:26;;;;;;;;;;;22.30;99.90;;;;;;5118120;27;19991;-77
2023/05/08 13:46:52;;;;;;;;;;;22.50;99.90;;;;;;5113326;27;19946;-77
2023/05/08 13:49:18;;;;;;;;;;;22.20;99.90;;;;;;5110956;27;20406;-78
2023/05/08 13:51:44;;;;;;;;;;;21.90;99.90;;;;;;5109983;27;19931;-77
2023/05/08 13:54:10;;;;;;;;;;;21.80;99.90;;;;;;5113719;27;19928;-79
2023/05/08 13:56:35;;;;;;;;;;;21.50;99.90;;;;;;5109040;27;19943;-75
2023/05/08 13:59:01;;;;;;;;;;;20.80;99.90;;;;;;5117591;27;19928;-75
2023/05/08 14:01:26;;;;;;;;;;;19.90;99.90;;;;;;5113711;27;19981;-77
2023/05/08 14:03:52;;;;;;;;;;;19.50;99.90;;;;;;5114557;27;19939;-80
2023/05/08 14:06:19;;;;;;;;;;;19.30;99.90;;;;;;5110377;27;19927;-78
2023/05/08 14:08:46;;;;;;;;;;;19.00;99.90;;;;;;5101450;27;19967;-81
2023/05/08 14:11:11;;;;;;;;;;;18.70;99.90;;;;;;5097720;27;19934;-81
2023/05/08 14:13:37;;;;;;;;;;;18.60;99.90;;;;;;5102816;27;19928;-81
2023/05/08 14:16:03;;;;;;;;;;;18.40;99.90;;;;;;5110329;27;20196;-80
2023/05/08 14:18:28;;;;;;;;;;;18.50;99.90;;;;;;5110900;27;19927;-80